Time;durP1;ratioP1;P1;durP2;ratioP2;P2;SDS_P1;SDS_P2;PMS_P1;PMS_P2;Temp;Humidity;BMP_temperature;BMP_pressure;BME280_temperature;BME280_humidity;BME280_pressure;Samples;Min_cycle;Max_cycle;Signal;HPM_P1;HPM_P2
2023/07/14 00:01:23;;;;;;;16.42;5.85;;;16.10;99.90;;;;;;5004683;28;20068;-67
2023/07/14 00:03:50;;;;;;;12.43;5.82;;;16.00;99.90;;;;;;4961523;28;216937;-67
2023/07/14 00:06:17;;;;;;;12.60;6.10;;;16.00;99.90;;;;;;5004159;28;20058;-66
2023/07/14 00:08:45;;;;;;;12.18;6.80;;;15.90;99.90;;;;;;4949758;28;235199;-65
2023/07/14 00:11:22;;;;;;;12.73;6.50;;;15.90;99.90;;;;;;5021550;28;20069;-67
2023/07/14 00:13:50;;;;;;;12.75;6.30;;;15.90;99.90;;;;;;4952976;28;223314;-67
2023/07/14 00:16:28;;;;;;;12.70;6.50;;;15.80;99.90;;;;;;5001208;28;20050;-66
2023/07/14 00:18:54;;;;;;;13.38;6.45;;;15.80;99.90;;;;;;4954144;28;212605;-67
2023/07/14 00:21:25;;;;;;;12.60;6.20;;;15.70;99.90;;;;;;5006135;28;20065;-67
2023/07/14 00:23:57;;;;;;;13.60;6.88;;;15.70;99.90;;;;;;4939547;28;215542;-66
2023/07/14 00:26:24;;;;;;;13.18;7.05;;;15.70;99.90;;;;;;5008664;28;20056;-66
2023/07/14 00:28:50;;;;;;;13.60;7.32;;;15.70;99.90;;;;;;4955493;28;213351;-66
2023/07/14 00:31:20;;;;;;;13.38;7.55;;;15.70;99.90;;;;;;5004154;28;20710;-66
2023/07/14 00:33:50;;;;;;;15.38;7.80;;;15.60;99.90;;;;;;4962621;28;212937;-67
2023/07/14 00:36:21;;;;;;;15.60;8.13;;;15.60;99.90;;;;;;5003600;28;20053;-66
2023/07/14 00:38:47;;;;;;;15.95;7.68;;;15.50;99.90;;;;;;4940677;28;206901;-66
2023/07/14 00:41:18;;;;;;;14.25;7.28;;;15.50;99.90;;;;;;5004575;28;20439;-66
2023/07/14 00:43:45;;;;;;;;;;;15.50;99.90;;;;;;4945063;28;206194;-66
2023/07/14 00:46:24;;;;;;;14.27;8.70;;;15.40;99.90;;;;;;5005850;28;19925;-67
2023/07/14 00:48:53;;;;;;;15.25;8.20;;;15.40;99.90;;;;;;4948527;28;231004;-66
2023/07/14 00:51:20;;;;;;;15.32;9.10;;;15.40;99.90;;;;;;5009824;28;20069;-66
2023/07/14 00:53:46;;;;;;;16.25;8.43;;;15.40;99.90;;;;;;4962169;28;211187;-66
2023/07/14 00:56:12;;;;;;;15.88;8.80;;;15.40;99.90;;;;;;5003834;28;20058;-66
2023/07/14 00:58:42;;;;;;;16.48;9.75;;;15.30;99.90;;;;;;4921737;28;210432;-66
2023/07/14 01:01:13;;;;;;;16.98;8.85;;;15.30;99.90;;;;;;5002447;28;20058;-66
2023/07/14 01:03:43;;;;;;;18.95;9.95;;;15.30;99.90;;;;;;4947969;28;209119;-66
2023/07/14 01:06:23;;;;;;;18.60;9.63;;;15.30;99.90;;;;;;5005108;28;20057;-66
2023/07/14 01:08:58;;;;;;;15.20;9.77;;;15.20;99.90;;;;;;4956060;28;237550;-67
2023/07/14 01:11:45;;;;;;;20.20;9.43;;;15.20;99.90;;;;;;5002028;28;20994;-67
2023/07/14 01:14:18;;;;;;;15.00;10.05;;;15.20;99.90;;;;;;4943596;28;20054;-66
2023/07/14 01:16:47;;;;;;;16.50;10.30;;;15.20;99.90;;;;;;4956539;28;208725;-66
2023/07/14 01:19:24;;;;;;;20.38;10.80;;;15.10;99.90;;;;;;4995452;28;20049;-67
2023/07/14 01:21:58;;;;;;;17.93;11.33;;;15.10;99.90;;;;;;4951881;28;210153;-67
2023/07/14 01:24:32;;;;;;;18.60;11.07;;;15.10;99.90;;;;;;5010792;28;20515;-67
2023/07/14 01:27:05;;;;;;;18.30;11.40;;;15.10;99.90;;;;;;4946843;28;247901;-66
2023/07/14 01:29:33;;;;;;;15.75;10.52;;;15.00;99.90;;;;;;5012294;28;20054;-65
2023/07/14 01:32:00;;;;;;;19.30;12.05;;;15.00;99.90;;;;;;4943346;28;226839;-66
2023/07/14 01:34:28;;;;;;;19.17;11.55;;;15.00;99.90;;;;;;4999551;28;20049;-67
2023/07/14 01:36:58;;;;;;;18.83;12.47;;;15.00;99.90;;;;;;4949108;28;208380;-66
2023/07/14 01:39:25;;;;;;;18.48;11.38;;;15.00;99.90;;;;;;4996708;28;20049;-66
2023/07/14 01:41:52;;;;;;;17.45;11.52;;;14.90;99.90;;;;;;4951973;28;216281;-65
2023/07/14 01:44:21;;;;;;;18.23;11.25;;;14.90;99.90;;;;;;5020478;28;20062;-67
2023/07/14 01:46:48;;;;;;;18.30;12.60;;;14.90;99.90;;;;;;4956402;28;212357;-66
2023/07/14 01:49:32;;;;;;;17.10;11.57;;;14.90;99.90;;;;;;5017683;28;20061;-66
2023/07/14 01:52:01;;;;;;;18.30;11.93;;;14.90;99.90;;;;;;4949578;28;214510;-65
2023/07/14 01:54:38;;;;;;;18.23;12.43;;;14.90;99.90;;;;;;5020367;28;20415;-66
2023/07/14 01:57:12;;;;;;;19.00;13.07;;;14.90;99.90;;;;;;4952306;28;211776;-66
2023/07/14 01:59:44;;;;;;;16.60;12.13;;;14.80;99.90;;;;;;5013901;28;20057;-65
2023/07/14 02:02:19;;;;;;;17.95;12.57;;;14.80;99.90;;;;;;4950809;28;227340;-66
2023/07/14 02:04:49;;;;;;;21.50;12.00;;;14.80;99.90;;;;;;5025394;28;20069;-65
2023/07/14 02:07:15;;;;;;;25.15;12.70;;;14.80;99.90;;;;;;4982494;28;207507;-65
2023/07/14 02:09:42;;;;;;;21.70;12.60;;;14.80;99.90;;;;;;5001055;28;20054;-66
2023/07/14 02:12:25;;;;;;;17.98;11.80;;;14.80;99.90;;;;;;4947889;28;221975;-66
2023/07/14 02:15:03;;;;;;;19.27;12.20;;;14.70;99.90;;;;;;5021296;28;20435;-66
2023/07/14 02:17:34;;;;;;;19.10;11.38;;;14.70;99.90;;;;;;4969153;28;209878;-66
2023/07/14 02:20:05;;;;;;;20.77;11.43;;;14.70;99.90;;;;;;5020964;28;20053;-66
2023/07/14 02:22:33;;;;;;;19.75;12.07;;;14.70;99.90;;;;;;4972815;28;220650;-66
2023/07/14 02:25:02;;;;;;;16.33;10.32;;;14.70;99.90;;;;;;5024926;28;20056;-66
2023/07/14 02:27:29;;;;;;;22.13;11.45;;;14.70;99.90;;;;;;4970314;28;211552;-65
2023/07/14 02:30:00;;;;;;;19.40;10.93;;;14.70;99.90;;;;;;5025161;28;20057;-66
2023/07/14 02:32:32;;;;;;;18.27;11.57;;;14.60;99.90;;;;;;4974055;28;213122;-66
2023/07/14 02:35:33;;;;;;;19.35;11.20;;;14.60;99.90;;;;;;5013919;28;20068;-66
2023/07/14 02:38:04;;;;;;;16.02;10.85;;;14.60;99.90;;;;;;4963830;28;210949;-66
2023/07/14 02:40:54;;;;;;;19.17;11.02;;;14.60;99.90;;;;;;5026707;28;20057;-66
2023/07/14 02:43:23;;;;;;;16.48;10.40;;;14.50;99.90;;;;;;4978900;28;210208;-66
2023/07/14 02:45:56;;;;;;;18.67;10.93;;;14.50;99.90;;;;;;5027648;28;20053;-66
2023/07/14 02:48:30;;;;;;;17.25;10.52;;;14.50;99.90;;;;;;4969852;28;213734;-66
2023/07/14 02:50:58;;;;;;;17.98;10.60;;;14.50;99.90;;;;;;5029547;28;20060;-67
2023/07/14 02:53:24;;;;;;;18.08;10.35;;;14.40;99.90;;;;;;4979875;28;210643;-66
2023/07/14 02:55:50;;;;;;;15.38;9.85;;;14.40;99.90;;;;;;5027604;28;20057;-67
2023/07/14 02:58:17;;;;;;;17.38;9.63;;;14.40;99.90;;;;;;4957945;28;206303;-67
2023/07/14 03:00:44;;;;;;;16.75;9.18;;;14.40;99.90;;;;;;5026215;28;20068;-66
2023/07/14 03:03:11;;;;;;;15.82;9.55;;;14.40;99.90;;;;;;4965684;28;207296;-66
2023/07/14 03:05:37;;;;;;;14.93;9.60;;;14.40;99.90;;;;;;5025273;28;20062;-67
2023/07/14 03:08:07;;;;;;;14.90;9.00;;;14.30;99.90;;;;;;4971996;28;214184;-66
2023/07/14 03:10:34;;;;;;;15.82;8.70;;;14.40;99.90;;;;;;5022359;28;20065;-66
2023/07/14 03:13:00;;;;;;;14.52;8.95;;;14.30;99.90;;;;;;4974552;28;216966;-67
2023/07/14 03:15:26;;;;;;;15.88;9.05;;;14.40;99.90;;;;;;5025594;28;20061;-66
2023/07/14 03:17:52;;;;;;;16.65;8.55;;;14.30;99.90;;;;;;4971651;28;207776;-65
2023/07/14 03:20:18;;;;;;;14.48;7.88;;;14.30;99.90;;;;;;5016333;28;20065;-65
2023/07/14 03:22:46;;;;;;;15.85;8.52;;;14.30;99.90;;;;;;4972570;28;219751;-65
2023/07/14 03:25:12;;;;;;;17.70;8.73;;;14.30;99.90;;;;;;5024198;28;20080;-66
2023/07/14 03:27:38;;;;;;;13.73;8.07;;;14.30;99.90;;;;;;4976050;28;216562;-66
2023/07/14 03:30:05;;;;;;;16.23;8.65;;;14.30;99.90;;;;;;5025379;28;20052;-65
2023/07/14 03:32:31;;;;;;;16.00;8.65;;;14.30;99.90;;;;;;4968901;28;210808;-65
2023/07/14 03:34:57;;;;;;;14.73;7.90;;;14.20;99.90;;;;;;5025226;28;20057;-65
2023/07/14 03:37:24;;;;;;;15.60;8.10;;;14.20;99.90;;;;;;4975659;28;212985;-66
2023/07/14 03:39:50;;;;;;;14.18;8.30;;;14.20;99.90;;;;;;5035331;28;20053;-66
2023/07/14 03:42:16;;;;;;;14.95;7.70;;;14.20;99.90;;;;;;4959801;28;252186;-66
2023/07/14 03:44:42;;;;;;;14.88;7.47;;;14.20;99.90;;;;;;5021238;28;20418;-66
2023/07/14 03:47:08;;;;;;;14.50;7.40;;;14.20;99.90;;;;;;4976879;28;215249;-66
2023/07/14 03:49:34;;;;;;;14.63;7.78;;;14.20;99.90;;;;;;5032506;28;20756;-66
2023/07/14 03:52:02;;;;;;;14.05;7.75;;;14.20;99.90;;;;;;4972245;28;211812;-67
2023/07/14 03:54:30;;;;;;;14.38;7.63;;;14.30;99.90;;;;;;5035266;28;20053;-66
2023/07/14 03:56:58;;;;;;;13.13;7.17;;;14.20;99.90;;;;;;4961039;28;210434;-66
2023/07/14 03:59:25;;;;;;;16.77;7.60;;;14.30;99.90;;;;;;5037344;28;20049;-67
2023/07/14 04:01:51;;;;;;;14.15;7.40;;;14.30;99.90;;;;;;4962453;28;214377;-68
2023/07/14 04:04:19;;;;;;;14.23;7.15;;;14.30;99.90;;;;;;5012194;28;20053;-66
2023/07/14 04:06:45;;;;;;;14.20;7.40;;;14.30;99.90;;;;;;4966998;28;211344;-65
2023/07/14 04:09:12;;;;;;;13.95;6.90;;;14.40;99.90;;;;;;5005766;28;20054;-65
2023/07/14 04:11:38;;;;;;;16.45;7.78;;;14.30;99.90;;;;;;5013926;28;216818;-66
2023/07/14 04:14:06;;;;;;;15.07;7.43;;;14.40;99.90;;;;;;4999897;28;48726;-65
2023/07/14 04:16:32;;;;;;;19.58;7.55;;;14.30;99.90;;;;;;5021304;28;20057;-66
2023/07/14 04:18:58;;;;;;;13.77;7.30;;;14.40;99.90;;;;;;4974447;28;219812;-66
2023/07/14 04:21:27;;;;;;;16.05;8.15;;;14.40;99.90;;;;;;5032684;28;20064;-66
2023/07/14 04:23:54;;;;;;;17.52;7.57;;;14.40;99.90;;;;;;4966031;28;207665;-66
2023/07/14 04:26:22;;;;;;;14.43;7.07;;;14.50;99.90;;;;;;5026369;28;20057;-66
2023/07/14 04:28:48;;;;;;;15.23;7.63;;;14.40;99.90;;;;;;4958549;28;212207;-66
2023/07/14 04:31:15;;;;;;;15.93;7.28;;;14.50;99.90;;;;;;5026573;28;20053;-65
2023/07/14 04:33:43;;;;;;;15.20;7.10;;;14.50;99.90;;;;;;4953442;28;211187;-66
2023/07/14 04:36:09;;;;;;;15.82;6.75;;;14.60;99.90;;;;;;5024562;28;20057;-66
2023/07/14 04:38:35;;;;;;;13.95;6.95;;;14.60;99.90;;;;;;4982233;28;206710;-66
2023/07/14 04:41:02;;;;;;;13.73;6.93;;;14.70;99.90;;;;;;5024066;28;20054;-66
2023/07/14 04:43:29;;;;;;;15.73;6.75;;;14.70;99.90;;;;;;4961813;28;220343;-64
2023/07/14 04:45:55;;;;;;;16.15;6.72;;;14.70;99.90;;;;;;5003974;28;20077;-64
2023/07/14 04:48:24;;;;;;;15.88;7.35;;;14.80;99.90;;;;;;4959276;28;211457;-65
2023/07/14 04:50:51;;;;;;;18.15;7.10;;;14.80;99.90;;;;;;5004857;28;20053;-65
2023/07/14 04:53:19;;;;;;;15.70;7.03;;;14.90;99.90;;;;;;4954325;28;222569;-66
2023/07/14 04:55:46;;;;;;;13.48;6.68;;;14.90;99.90;;;;;;5004621;28;20080;-66
2023/07/14 04:58:14;;;;;;;14.57;6.85;;;15.00;99.90;;;;;;4926274;28;241981;-66
2023/07/14 05:00:44;;;;;;;14.43;7.03;;;15.10;99.90;;;;;;5001601;28;20172;-64
2023/07/14 05:03:10;;;;;;;15.68;6.70;;;15.10;99.90;;;;;;4950898;28;206453;-66
2023/07/14 05:05:36;;;;;;;12.98;6.57;;;15.20;99.90;;;;;;5007828;28;20061;-65
2023/07/14 05:08:03;;;;;;;15.20;7.00;;;15.30;99.90;;;;;;4934796;28;209461;-65
2023/07/14 05:10:37;;;;;;;14.32;6.97;;;15.30;99.90;;;;;;4999835;28;20061;-66
2023/07/14 05:13:04;;;;;;;13.82;6.47;;;15.40;99.90;;;;;;4950829;28;210820;-66
2023/07/14 05:15:30;;;;;;;14.52;6.63;;;15.50;99.90;;;;;;4995318;28;20490;-66
2023/07/14 05:17:57;;;;;;;15.30;6.30;;;15.50;99.90;;;;;;4944510;28;208432;-66
2023/07/14 05:20:23;;;;;;;14.82;6.20;;;15.50;99.90;;;;;;4995357;28;20060;-65
2023/07/14 05:22:53;;;;;;;12.68;6.13;;;15.60;99.90;;;;;;4954131;28;213731;-65
2023/07/14 05:25:21;;;;;;;13.98;6.60;;;15.70;99.90;;;;;;5009275;28;20057;-66
2023/07/14 05:27:48;;;;;;;17.15;6.53;;;15.80;99.90;;;;;;4951083;28;200080;-67
2023/07/14 05:30:17;;;;;;;14.93;6.88;;;15.90;99.90;;;;;;4991041;28;20534;-67
2023/07/14 05:32:44;;;;;;;13.63;6.40;;;16.00;99.90;;;;;;4953152;28;218029;-66
2023/07/14 05:35:11;;;;;;;13.70;6.28;;;16.10;99.90;;;;;;5005224;28;20085;-66
2023/07/14 05:37:38;;;;;;;15.65;6.30;;;16.10;99.90;;;;;;4946394;28;219131;-66
2023/07/14 05:40:07;;;;;;;16.63;5.90;;;16.20;99.90;;;;;;5004727;28;20049;-67
2023/07/14 05:42:34;;;;;;;15.05;5.78;;;16.30;99.90;;;;;;4941923;28;210392;-66
2023/07/14 05:45:00;;;;;;;14.45;6.63;;;16.40;99.90;;;;;;5000029;28;20550;-66
2023/07/14 05:47:26;;;;;;;14.30;5.70;;;16.50;99.90;;;;;;4952733;28;210881;-66
2023/07/14 05:49:52;;;;;;;13.50;5.68;;;16.50;99.90;;;;;;4996617;28;20081;-65
2023/07/14 05:52:18;;;;;;;14.77;6.57;;;16.70;99.90;;;;;;4960101;28;213180;-66
2023/07/14 05:54:47;;;;;;;15.20;6.00;;;16.80;99.90;;;;;;4995919;28;20058;-66
2023/07/14 05:57:14;;;;;;;13.43;6.50;;;17.00;99.90;;;;;;4918707;28;213734;-66
2023/07/14 05:59:40;;;;;;;14.93;6.00;;;17.10;99.90;;;;;;4993101;28;20069;-65
2023/07/14 06:02:10;;;;;;;13.05;5.70;;;17.30;99.90;;;;;;4942551;28;216676;-66
2023/07/14 06:04:36;;;;;;;12.87;5.97;;;17.50;99.90;;;;;;5009683;28;20053;-65
2023/07/14 06:07:04;;;;;;;14.02;5.40;;;17.60;99.90;;;;;;4945259;28;212514;-66
2023/07/14 06:09:35;;;;;;;15.77;5.70;;;17.80;99.90;;;;;;4992792;28;20068;-66
2023/07/14 06:12:04;;;;;;;13.13;6.10;;;17.90;99.90;;;;;;4943273;28;209374;-67
2023/07/14 06:14:35;;;;;;;13.85;5.88;;;18.20;99.90;;;;;;4986154;28;20061;-66
2023/07/14 06:17:02;;;;;;;;;;;18.30;99.90;;;;;;4949171;28;207607;-66
2023/07/14 06:19:28;;;;;;;13.27;5.32;;;18.40;99.90;;;;;;5002951;28;19926;-66
2023/07/14 06:21:55;;;;;;;15.18;5.43;;;18.60;99.90;;;;;;4945501;28;221586;-65
2023/07/14 06:24:23;;;;;;;13.05;5.43;;;18.80;99.90;;;;;;5000495;28;20406;-66
2023/07/14 06:26:50;;;;;;;12.80;5.50;;;18.80;99.90;;;;;;4966916;28;206742;-66
2023/07/14 06:29:16;;;;;;;13.10;5.25;;;19.00;99.90;;;;;;5021858;28;20064;-66
2023/07/14 06:31:43;;;;;;;12.00;5.03;;;19.10;99.90;;;;;;4977824;28;238940;-66
2023/07/14 06:34:09;;;;;;;12.45;5.10;;;19.40;99.90;;;;;;5027020;28;20057;-65
2023/07/14 06:36:36;;;;;;;14.30;5.20;;;19.60;99.90;;;;;;5025522;28;20053;-66
2023/07/14 06:39:04;;;;;;;14.65;5.22;;;19.40;99.90;;;;;;4965221;28;78406;-66
2023/07/14 06:41:30;;;;;;;13.18;5.53;;;19.50;99.90;;;;;;4989107;28;20815;-67
2023/07/14 06:43:57;;;;;;;13.65;4.93;;;19.80;99.90;;;;;;4955196;28;206308;-66
2023/07/14 06:46:23;;;;;;;10.90;5.00;;;19.90;99.90;;;;;;5008470;28;20049;-66
2023/07/14 06:48:50;;;;;;;12.98;4.80;;;20.10;99.90;;;;;;4954636;28;206620;-66
2023/07/14 06:51:16;;;;;;;11.60;4.53;;;20.30;99.90;;;;;;5007294;28;20061;-66
2023/07/14 06:53:42;;;;;;;13.20;4.60;;;20.50;99.90;;;;;;4972185;28;213316;-65
2023/07/14 06:56:08;;;;;;;10.15;4.03;;;20.70;99.90;;;;;;5023367;28;20045;-65
2023/07/14 06:58:35;;;;;;;13.52;4.90;;;20.70;99.90;;;;;;4944560;28;212041;-66
2023/07/14 07:01:02;;;;;;;10.77;4.60;;;20.70;99.90;;;;;;5027100;28;20049;-66
2023/07/14 07:03:28;;;;;;;15.35;4.57;;;20.90;99.90;;;;;;4976577;28;206728;-67
2023/07/14 07:05:56;;;;;;;11.25;4.20;;;21.20;99.90;;;;;;5022087;28;20427;-67
2023/07/14 07:08:23;;;;;;;11.25;4.55;;;21.20;99.90;;;;;;4956572;28;205987;-65
2023/07/14 07:10:49;;;;;;;11.40;4.85;;;21.30;99.90;;;;;;5027025;28;20510;-66
2023/07/14 07:13:15;;;;;;;15.18;5.07;;;21.30;99.90;;;;;;4958019;28;205088;-65
2023/07/14 07:15:42;;;;;;;11.00;5.20;;;21.30;99.90;;;;;;5023670;28;20064;-66
2023/07/14 07:18:08;;;;;;;11.73;4.40;;;21.30;99.90;;;;;;4981812;28;208710;-66
2023/07/14 07:20:42;;;;;;;12.48;4.65;;;21.40;99.90;;;;;;5015203;28;20423;-65
2023/07/14 07:23:09;;;;;;;12.05;4.43;;;21.70;99.90;;;;;;4968204;28;216253;-66
2023/07/14 07:25:36;;;;;;;11.45;4.63;;;21.90;99.90;;;;;;5029439;28;20061;-65
2023/07/14 07:28:03;;;;;;;10.23;5.03;;;22.00;99.90;;;;;;4978153;28;230917;-66
2023/07/14 07:30:31;;;;;;;12.55;4.55;;;21.90;99.90;;;;;;5020792;28;20049;-66
2023/07/14 07:32:58;;;;;;;14.35;4.72;;;22.10;99.90;;;;;;4978734;28;205006;-66
2023/07/14 07:35:24;;;;;;;13.88;5.20;;;22.00;99.90;;;;;;5023974;28;20066;-67
2023/07/14 07:37:51;;;;;;;11.45;5.10;;;22.00;99.90;;;;;;4968500;28;215368;-67
2023/07/14 07:40:17;;;;;;;12.63;5.50;;;22.00;99.90;;;;;;5024458;28;21266;-66
2023/07/14 07:42:43;;;;;;;12.73;5.38;;;22.00;99.90;;;;;;4954404;28;209405;-67
2023/07/14 07:45:10;;;;;;;12.20;5.55;;;22.10;99.90;;;;;;5013228;28;20491;-67
2023/07/14 07:47:36;;;;;;;15.02;5.00;;;22.00;99.90;;;;;;4976258;28;216782;-67
2023/07/14 07:50:03;;;;;;;11.23;4.70;;;22.40;99.90;;;;;;5037035;28;20049;-67
2023/07/14 07:52:32;;;;;;;10.20;4.53;;;22.20;99.90;;;;;;4977336;28;223371;-68
2023/07/14 07:54:58;;;;;;;11.90;4.65;;;22.30;99.90;;;;;;5028071;28;20053;-68
2023/07/14 07:57:25;;;;;;;12.38;4.95;;;22.60;99.90;;;;;;4960236;28;222601;-66
2023/07/14 07:59:51;;;;;;;12.73;4.75;;;22.40;99.70;;;;;;5020044;28;20506;-68
2023/07/14 08:02:17;;;;;;;11.18;4.50;;;22.30;99.90;;;;;;4962017;28;213557;-67
2023/07/14 08:04:43;;;;;;;9.82;3.92;;;22.50;99.70;;;;;;5011718;28;20061;-67
2023/07/14 08:07:11;;;;;;;11.77;4.43;;;22.30;99.40;;;;;;4953680;28;215926;-66
2023/07/14 08:09:37;;;;;;;11.70;4.10;;;22.70;99.70;;;;;;5035602;28;20045;-67
2023/07/14 08:12:04;;;;;;;10.48;3.72;;;22.90;99.60;;;;;;4965789;28;212039;-67
2023/07/14 08:14:32;;;;;;;9.73;3.60;;;22.80;98.30;;;;;;4998490;28;20137;-66
2023/07/14 08:16:58;;;;;;;8.65;3.28;;;22.70;98.80;;;;;;4947264;28;207428;-65
2023/07/14 08:19:24;;;;;;;9.30;3.28;;;22.90;97.70;;;;;;5016119;28;20049;-67
2023/07/14 08:21:51;;;;;;;9.05;2.83;;;22.60;98.30;;;;;;4957791;28;214264;-67
2023/07/14 08:24:17;;;;;;;9.85;3.05;;;22.30;97.40;;;;;;5002199;28;20054;-66
2023/07/14 08:26:43;;;;;;;9.65;3.00;;;22.50;98.00;;;;;;4964226;28;210592;-66
2023/07/14 08:29:09;;;;;;;8.90;3.03;;;22.30;97.50;;;;;;5011209;28;20628;-67
2023/07/14 08:31:35;;;;;;;9.85;3.08;;;21.90;97.70;;;;;;5008827;28;20053;-68
2023/07/14 08:34:01;;;;;;;8.00;2.78;;;22.10;98.10;;;;;;4942330;28;371871;-66
2023/07/14 08:36:28;;;;;;;8.38;2.20;;;22.00;98.00;;;;;;5005525;28;20045;-66
2023/07/14 08:38:54;;;;;;;8.02;2.40;;;21.50;97.10;;;;;;4958804;28;215799;-65
2023/07/14 08:41:30;;;;;;;9.02;2.20;;;21.50;97.70;;;;;;5005040;28;20061;-66
2023/07/14 08:44:34;;;;;;;8.90;2.35;;;21.60;97.60;;;;;;4943685;28;213529;-67
2023/07/14 08:47:20;;;;;;;7.97;2.33;;;22.10;96.60;;;;;;4957090;28;211006;-66
2023/07/14 08:50:12;;;;;;;8.20;2.25;;;22.80;96.00;;;;;;5000079;28;20053;-67
2023/07/14 08:52:39;;;;;;;7.72;2.40;;;22.60;96.00;;;;;;4953004;28;240502;-68
2023/07/14 08:55:18;;;;;;;8.50;2.35;;;22.10;96.30;;;;;;5011083;28;20419;-66
2023/07/14 08:57:57;;;;;;;7.20;2.10;;;22.20;96.00;;;;;;4916867;28;220577;-66
2023/07/14 09:00:36;;;;;;;8.73;2.40;;;22.20;95.80;;;;;;4969543;28;20058;-65
2023/07/14 09:03:24;;;;;;;8.23;2.00;;;22.00;96.50;;;;;;4944197;28;212702;-67
2023/07/14 09:05:57;;;;;;;9.38;2.40;;;22.10;95.90;;;;;;5007676;28;20050;-69
2023/07/14 09:08:28;;;;;;;9.43;2.42;;;22.90;95.50;;;;;;4961676;28;216029;-68
2023/07/14 09:11:13;;;;;;;9.23;2.47;;;23.20;94.90;;;;;;5006030;28;20058;-69
2023/07/14 09:14:09;;;;;;;11.00;2.30;;;23.60;94.10;;;;;;4938736;28;208501;-68
2023/07/14 09:16:43;;;;;;;7.57;2.13;;;23.50;94.90;;;;;;5002790;28;20054;-69
2023/07/14 09:19:23;;;;;;;8.60;2.10;;;23.70;94.70;;;;;;4945881;28;207947;-68
2023/07/14 09:22:02;;;;;;;9.57;2.50;;;24.50;93.90;;;;;;4945221;28;211173;-68
2023/07/14 09:24:40;;;;;;;8.50;2.35;;;25.00;93.30;;;;;;5014251;28;20050;-68
2023/07/14 09:27:19;;;;;;;8.70;2.53;;;24.40;92.80;;;;;;4942431;28;212319;-68
2023/07/14 09:29:46;;;;;;;10.10;2.78;;;24.30;92.50;;;;;;4981881;28;20041;-68
2023/07/14 09:32:35;;;;;;;8.57;2.38;;;23.50;93.70;;;;;;4952743;28;210271;-67
2023/07/14 09:35:20;;;;;;;8.02;2.35;;;23.20;93.40;;;;;;5001014;28;20042;-68
2023/07/14 09:38:10;;;;;;;7.85;2.35;;;23.20;94.00;;;;;;4955799;28;228414;-66
2023/07/14 09:40:39;;;;;;;8.00;2.50;;;23.50;93.90;;;;;;5008569;28;20054;-69
2023/07/14 09:43:06;;;;;;;8.63;2.45;;;23.80;94.30;;;;;;4955590;28;212310;-68
2023/07/14 09:45:35;;;;;;;8.77;2.63;;;24.10;93.80;;;;;;5010947;28;20057;-68
2023/07/14 09:48:26;;;;;;;9.25;2.70;;;23.50;94.10;;;;;;4949486;28;209221;-68
2023/07/14 09:51:20;;;;;;;9.65;2.95;;;23.90;94.10;;;;;;5003744;28;20057;-68
2023/07/14 09:54:01;;;;;;;8.90;2.70;;;23.60;94.00;;;;;;4956180;28;213769;-69
2023/07/14 09:56:43;;;;;;;8.52;2.53;;;23.10;94.40;;;;;;5007213;28;20057;-68
2023/07/14 09:59:23;;;;;;;10.05;2.95;;;22.90;94.50;;;;;;4936914;28;20094;-68
2023/07/14 10:01:52;;;;;;;10.18;3.33;;;23.50;94.50;;;;;;4950566;28;209935;-69
2023/07/14 10:04:19;;;;;;;10.85;3.13;;;23.90;94.20;;;;;;5005097;28;20050;-69
2023/07/14 10:06:50;;;;;;;8.45;2.80;;;24.00;94.50;;;;;;4950135;28;210501;-68
2023/07/14 10:09:20;;;;;;;8.88;3.17;;;24.60;94.30;;;;;;5004339;28;20057;-68
2023/07/14 10:11:48;;;;;;;8.47;2.87;;;24.60;94.20;;;;;;4948047;28;212111;-67
2023/07/14 10:14:35;;;;;;;8.82;2.95;;;25.10;93.60;;;;;;5000091;28;20058;-69
2023/07/14 10:17:03;;;;;;;8.68;3.30;;;24.60;93.10;;;;;;4960583;28;215713;-69
2023/07/14 10:19:38;;;;;;;9.73;3.10;;;24.20;93.70;;;;;;5003868;28;20181;-68
2023/07/14 10:22:17;;;;;;;9.52;3.20;;;24.80;93.60;;;;;;4963608;28;212715;-69
2023/07/14 10:24:53;;;;;;;9.07;3.00;;;24.60;94.00;;;;;;5007412;28;20054;-68
2023/07/14 10:27:25;;;;;;;9.48;3.40;;;24.70;93.10;;;;;;4964758;28;219425;-68
2023/07/14 10:29:58;;;;;;;9.52;2.90;;;24.30;93.50;;;;;;5035355;28;20050;-67
2023/07/14 10:32:49;;;;;;;10.25;3.17;;;23.90;93.70;;;;;;4970372;28;215595;-68
2023/07/14 10:35:25;;;;;;;10.15;3.20;;;23.60;94.20;;;;;;5008039;28;20054;-68
2023/07/14 10:38:04;;;;;;;10.95;3.58;;;23.50;94.30;;;;;;4946056;28;210800;-68
2023/07/14 10:40:37;;;;;;;9.13;3.45;;;24.20;93.60;;;;;;5001967;28;20049;-69
2023/07/14 10:43:10;;;;;;;9.95;3.38;;;25.10;93.70;;;;;;4951725;28;207785;-69
2023/07/14 10:45:39;;;;;;;8.75;2.88;;;25.90;93.60;;;;;;5008603;28;21284;-69
2023/07/14 10:48:15;;;;;;;9.18;3.10;;;26.30;93.10;;;;;;4953041;28;215629;-69
2023/07/14 10:51:10;;;;;;;13.07;3.40;;;26.10;93.00;;;;;;5004514;28;20058;-70
2023/07/14 10:53:48;;;;;;;9.57;2.70;;;26.40;92.00;;;;;;4958799;28;217694;-69
2023/07/14 10:56:25;;;;;;;10.32;3.22;;;26.10;92.20;;;;;;5010824;28;20054;-69
2023/07/14 10:58:58;;;;;;;9.48;2.90;;;26.20;92.50;;;;;;4950465;28;231701;-69
2023/07/14 11:01:36;;;;;;;8.82;2.90;;;25.90;92.70;;;;;;5007647;28;20058;-69
2023/07/14 11:04:27;;;;;;;8.05;2.78;;;25.60;92.70;;;;;;4975114;28;207841;-69
2023/07/14 11:06:55;;;;;;;9.23;2.87;;;25.10;92.30;;;;;;4963722;28;216575;-69
2023/07/14 11:09:21;;;;;;;9.73;2.70;;;24.70;92.40;;;;;;5031985;28;20049;-68
2023/07/14 11:11:50;;;;;;;8.43;2.80;;;24.20;93.00;;;;;;4972814;28;245087;-68
2023/07/14 11:14:47;;;;;;;8.05;2.70;;;24.20;93.00;;;;;;5017623;28;20076;-70
2023/07/14 11:17:29;;;;;;;8.82;3.00;;;24.40;93.50;;;;;;4970684;28;206293;-70
2023/07/14 11:19:55;;;;;;;8.90;3.10;;;25.00;93.10;;;;;;5023596;28;20045;-69
2023/07/14 11:22:29;;;;;;;8.38;2.88;;;25.30;92.30;;;;;;4970520;28;212316;-69
2023/07/14 11:25:17;;;;;;;8.70;3.40;;;25.50;91.90;;;;;;5029943;28;20041;-70
2023/07/14 11:28:07;;;;;;;8.57;2.83;;;25.40;92.20;;;;;;4976392;28;211816;-69
2023/07/14 11:30:42;;;;;;;9.20;3.27;;;25.60;92.50;;;;;;5011933;28;20499;-70
2023/07/14 11:33:29;;;;;;;8.80;3.17;;;25.50;92.20;;;;;;4953815;28;223707;-68
2023/07/14 11:36:13;;;;;;;8.95;2.70;;;26.30;92.10;;;;;;5004493;28;20042;-69
2023/07/14 11:39:11;;;;;;;10.32;2.80;;;26.40;91.70;;;;;;4953663;28;207578;-68
2023/07/14 11:41:38;;;;;;;9.63;3.17;;;26.40;91.80;;;;;;4993209;28;220307;-71
2023/07/14 11:44:10;;;;;;;9.63;3.28;;;26.00;92.20;;;;;;4950670;28;180988;-69
2023/07/14 11:46:38;;;;;;;9.43;3.00;;;26.70;91.90;;;;;;4997100;28;213180;-69
2023/07/14 11:49:06;;;;;;;9.23;3.15;;;26.50;92.10;;;;;;4983968;28;208366;-69
2023/07/14 11:51:50;;;;;;;10.25;3.03;;;26.10;91.90;;;;;;5030349;28;20068;-68
2023/07/14 11:54:19;;;;;;;8.43;2.95;;;25.60;91.50;;;;;;4969454;28;20049;-69
2023/07/14 11:57:06;;;;;;;10.85;3.17;;;25.30;91.80;;;;;;4951029;28;213109;-69
2023/07/14 11:59:35;;;;;;;9.57;3.45;;;25.20;92.10;;;;;;5002091;28;123271;-69
2023/07/14 12:02:42;;;;;;;10.38;3.03;;;24.50;92.70;;;;;;4969621;28;219448;-69
2023/07/14 12:05:14;;;;;;;10.32;3.38;;;24.30;93.10;;;;;;4974308;28;20477;-69
2023/07/14 12:08:02;;;;;;;9.27;3.17;;;24.40;92.80;;;;;;4952430;28;209404;-68
2023/07/14 12:10:37;;;;;;;9.40;3.25;;;24.30;92.50;;;;;;5007266;28;20463;-69
2023/07/14 12:13:25;;;;;;;9.88;3.30;;;24.30;92.80;;;;;;4946657;28;206589;-70
2023/07/14 12:15:54;;;;;;;11.57;3.65;;;24.50;92.60;;;;;;4989848;28;20045;-69
2023/07/14 12:18:26;;;;;;;7.93;3.55;;;24.10;92.90;;;;;;4948014;28;207152;-69
2023/07/14 12:21:15;;;;;;;10.38;3.78;;;24.50;92.90;;;;;;5005721;28;20045;-68
2023/07/14 12:23:51;;;;;;;8.45;3.10;;;24.80;92.90;;;;;;4924428;28;206458;-69
2023/07/14 12:26:35;;;;;;;12.65;3.72;;;24.30;93.20;;;;;;5004292;28;20050;-68
2023/07/14 12:29:10;;;;;;;10.20;3.42;;;24.30;93.40;;;;;;4922747;28;206323;-69
2023/07/14 12:31:36;;;;;;;11.23;3.33;;;24.10;93.50;;;;;;4996083;28;157651;-69
2023/07/14 12:34:03;;;;;;;13.45;3.75;;;24.20;93.50;;;;;;4959515;28;206423;-69
2023/07/14 12:36:31;;;;;;;9.02;3.22;;;24.10;93.60;;;;;;5004972;28;20054;-69
2023/07/14 12:38:58;;;;;;;9.35;3.50;;;24.40;93.50;;;;;;4928433;28;208483;-69
2023/07/14 12:41:29;;;;;;;9.15;3.30;;;24.50;93.40;;;;;;5027681;28;20105;-68
2023/07/14 12:43:59;;;;;;;10.85;3.22;;;24.80;93.40;;;;;;4954732;28;210752;-68
2023/07/14 12:46:35;;;;;;;;;;;25.00;93.00;;;;;;5029639;28;20134;-68
2023/07/14 12:49:22;;;;;;;9.35;3.42;;;25.10;92.90;;;;;;4993523;28;219494;-67
2023/07/14 12:51:50;;;;;;;11.07;3.50;;;24.90;93.10;;;;;;4981330;28;214107;-68
2023/07/14 12:54:25;;;;;;;14.02;4.30;;;25.10;93.10;;;;;;5017993;28;20061;-68